createdAt,value
2022-08-16T00:08:37.057Z,100570.03
2022-08-16T00:18:39.041Z,100560.03
2022-08-16T00:28:40.541Z,100572.41
2022-08-16T00:38:43.434Z,100575.63
2022-08-16T00:48:45.876Z,100583.22
2022-08-16T00:58:48.452Z,100579.91
2022-08-16T01:08:54.897Z,100578.06
2022-08-16T01:19:01.203Z,100584.84
2022-08-16T01:29:10.777Z,100595.50
2022-08-16T01:39:16.925Z,100611.50
2022-08-16T01:49:25.855Z,100613.44
2022-08-16T01:59:46.086Z,100629.13
2022-08-16T02:09:56.887Z,100617.47
2022-08-16T02:20:01.849Z,100630.38
2022-08-16T02:30:36.719Z,100624.22
2022-08-16T02:40:38.696Z,100620.47
2022-08-16T02:50:54.767Z,100638.16
2022-08-16T03:01:06.063Z,100621.41
2022-08-16T03:11:20.504Z,100615.66
2022-08-16T03:21:23.955Z,100627.28
2022-08-16T03:31:26.139Z,100620.78
2022-08-16T03:41:50.109Z,100613.19
2022-08-16T03:51:55.796Z,100615.38
2022-08-16T04:02:10.634Z,100619.78
2022-08-16T04:12:52.477Z,100626.38
2022-08-16T04:22:45.665Z,100622.25
2022-08-16T04:32:51.052Z,100622.31
2022-08-16T04:42:58.577Z,100632.25
2022-08-16T04:53:02.897Z,100658.31
2022-08-16T05:03:11.315Z,100674.38
2022-08-16T05:13:19.665Z,100683.13
2022-08-16T05:23:21.975Z,100683.38
2022-08-16T05:33:26.154Z,100686.69
2022-08-16T05:43:32.173Z,100695.25
2022-08-16T05:53:47.186Z,100708.91
2022-08-16T06:03:51.315Z,100729.31
2022-08-16T06:14:19.381Z,100730.91
2022-08-16T06:24:54.573Z,100730.66
2022-08-16T06:34:57.137Z,100730.34
2022-08-16T06:45:06.101Z,100733.41
2022-08-16T06:55:33.754Z,100736.72
2022-08-16T07:05:41.427Z,100743.53
2022-08-16T07:15:51.215Z,100742.91
2022-08-16T07:25:59.634Z,100738.44
2022-08-16T07:36:01.441Z,100763.75
2022-08-16T07:46:04.463Z,100759.81
2022-08-16T07:56:11.098Z,100775.44
2022-08-16T08:06:14.822Z,100777.06
2022-08-16T08:16:18.927Z,100775.78
2022-08-16T08:26:21.760Z,100783.59
2022-08-16T08:36:33.409Z,100792.88
2022-08-16T08:46:44.394Z,100786.03
2022-08-16T08:57:02.935Z,100790.53
2022-08-16T09:07:27.245Z,100806.16
2022-08-16T09:17:49.235Z,100807.44
2022-08-16T09:27:57.099Z,100802.53
2022-08-16T09:38:01.321Z,100808.16
2022-08-16T09:48:03.297Z,100814.84
2022-08-16T09:58:05.467Z,100812.53
2022-08-16T10:08:25.840Z,100810.88
2022-08-16T10:19:00.304Z,100811.66
2022-08-16T10:28:52.247Z,100819.66
2022-08-16T10:38:53.717Z,100817.94
2022-08-16T10:48:55.150Z,100808.88
2022-08-16T10:59:28.849Z,100821.06
2022-08-16T11:09:25.560Z,100840.44
2022-08-16T11:19:30.459Z,100838.44
2022-08-16T11:29:31.875Z,100845.81
2022-08-16T11:39:34.286Z,100853.53
2022-08-16T11:49:35.845Z,100846.22
2022-08-16T11:59:40.000Z,100856.97
2022-08-16T12:09:43.551Z,100863.41
2022-08-16T12:19:45.176Z,100882.19
2022-08-16T12:29:47.232Z,100876.56
2022-08-16T12:39:51.138Z,100859.81
2022-08-16T12:49:54.330Z,100853.81
2022-08-16T12:59:55.749Z,100863.59
2022-08-16T13:09:57.585Z,100867.25
2022-08-16T13:20:08.041Z,100855.66
2022-08-16T13:30:35.449Z,100847.03
2022-08-16T13:40:32.753Z,100856.47
2022-08-16T13:50:49.647Z,100844.19
2022-08-16T14:00:53.650Z,100855.66
2022-08-16T14:10:55.981Z,100848.09
2022-08-16T14:20:57.399Z,100842.53
2022-08-16T14:30:58.998Z,100855.03
2022-08-16T14:41:01.777Z,100855.88
2022-08-16T14:51:03.869Z,100856.28
2022-08-16T15:01:10.005Z,100846.81
2022-08-16T15:11:11.924Z,100846.41
2022-08-16T15:21:13.835Z,100848.88
2022-08-16T15:31:15.360Z,100855.59
2022-08-16T15:41:28.975Z,100867.50
2022-08-16T15:51:30.488Z,100881.25
2022-08-16T16:01:32.486Z,100886.53
2022-08-16T16:11:34.654Z,100887.41
2022-08-16T16:21:37.136Z,100884.69
2022-08-16T16:31:41.252Z,100890.59
2022-08-16T16:41:45.423Z,100901.03
2022-08-16T16:51:49.684Z,100891.09
2022-08-16T17:02:00.377Z,100904.69
2022-08-16T17:12:24.715Z,100904.84
2022-08-16T17:22:32.742Z,100914.66
2022-08-16T17:32:34.660Z,100933.91
2022-08-16T17:42:52.804Z,100939.69
2022-08-16T17:52:55.536Z,100951.78
2022-08-16T18:02:58.304Z,100961.91
2022-08-16T18:13:00.563Z,100970.44
2022-08-16T18:23:09.784Z,100970.25
2022-08-16T18:33:16.045Z,100981.72
2022-08-16T18:43:19.915Z,100992.75
2022-08-16T18:53:22.457Z,101012.44
2022-08-16T19:03:27.696Z,101023.75
2022-08-16T19:13:30.575Z,101046.16
2022-08-16T19:23:33.384Z,101063.84
2022-08-16T19:33:35.408Z,101063.56
2022-08-16T19:43:38.517Z,101083.09
2022-08-16T19:53:39.977Z,101084.91
2022-08-16T20:03:41.376Z,101098.47
2022-08-16T20:13:42.805Z,101104.72
2022-08-16T20:23:44.242Z,101115.25
2022-08-16T20:33:45.874Z,101106.31
2022-08-16T20:43:48.771Z,101118.66
2022-08-16T20:53:50.276Z,101140.03
2022-08-16T21:03:51.697Z,101143.66
2022-08-16T21:14:00.321Z,101168.00
2022-08-16T21:24:02.310Z,101177.59
2022-08-16T21:34:03.700Z,101179.50
2022-08-16T21:44:05.806Z,101183.47
2022-08-16T21:54:07.286Z,101187.38
2022-08-16T22:04:36.532Z,101178.22
2022-08-16T22:14:32.322Z,101183.53
2022-08-16T22:24:33.799Z,101188.25
2022-08-16T22:34:35.233Z,101203.34
2022-08-16T22:44:37.491Z,101195.09
2022-08-16T22:54:48.358Z,101202.00
2022-08-16T23:04:50.388Z,101207.53
2022-08-16T23:14:51.812Z,101200.66
2022-08-16T23:24:56.603Z,101194.44
2022-08-16T23:35:02.944Z,101182.38
2022-08-16T23:45:05.813Z,101181.97
2022-08-16T23:55:07.702Z,101179.56
